createdAt,value
2022-10-06T00:01:27.471Z,9.10
2022-10-06T00:04:00.013Z,9.00
2022-10-06T00:06:32.198Z,8.40
2022-10-06T00:09:04.551Z,9.00
2022-10-06T00:11:37.840Z,9.40
2022-10-06T00:14:10.142Z,9.70
2022-10-06T00:16:42.469Z,9.80
2022-10-06T00:19:14.671Z,10.00
2022-10-06T00:21:47.029Z,8.80
2022-10-06T00:24:19.847Z,8.80
2022-10-06T00:26:52.125Z,9.10
2022-10-06T00:29:24.441Z,8.60
2022-10-06T00:31:57.295Z,8.90
2022-10-06T00:34:29.579Z,8.90
2022-10-06T00:37:01.852Z,9.80
2022-10-06T00:39:34.174Z,9.70
2022-10-06T00:42:06.566Z,9.40
2022-10-06T00:44:38.843Z,11.00
2022-10-06T00:47:11.172Z,10.00
2022-10-06T00:49:45.022Z,10.50
2022-10-06T00:52:20.234Z,10.10
2022-10-06T00:54:52.669Z,9.60
2022-10-06T00:57:25.196Z,11.20
2022-10-06T00:59:57.522Z,8.80
2022-10-06T01:02:36.063Z,8.40
2022-10-06T01:05:11.376Z,8.90
2022-10-06T01:07:43.902Z,11.20
2022-10-06T01:10:16.225Z,10.20
2022-10-06T01:12:48.580Z,9.60
2022-10-06T01:15:22.695Z,10.30
2022-10-06T01:18:01.212Z,8.90
2022-10-06T01:20:34.690Z,9.50
2022-10-06T01:23:10.369Z,9.60
2022-10-06T01:25:42.873Z,11.40
2022-10-06T01:28:16.300Z,18.00
2022-10-06T01:30:53.054Z,13.30
2022-10-06T01:33:27.373Z,13.80
2022-10-06T01:36:00.021Z,11.20
2022-10-06T01:38:32.750Z,11.10
2022-10-06T01:41:08.560Z,9.20
2022-10-06T01:43:41.105Z,11.70
2022-10-06T01:46:13.510Z,10.70
2022-10-06T01:48:46.593Z,9.40
2022-10-06T01:51:20.441Z,9.00
2022-10-06T01:53:52.692Z,8.20
2022-10-06T01:56:26.635Z,10.10
2022-10-06T01:58:58.874Z,8.30
2022-10-06T02:01:31.721Z,9.20
2022-10-06T02:04:04.132Z,9.20
2022-10-06T02:06:36.510Z,9.40
2022-10-06T02:09:09.828Z,10.00
2022-10-06T02:11:43.885Z,9.00
2022-10-06T02:14:18.197Z,8.90
2022-10-06T02:16:50.801Z,9.60
2022-10-06T02:19:23.316Z,9.60
2022-10-06T02:21:56.044Z,10.80
2022-10-06T02:24:28.391Z,10.80
2022-10-06T02:27:00.709Z,9.60
2022-10-06T02:29:33.081Z,10.30
2022-10-06T02:32:05.839Z,9.30
2022-10-06T02:34:38.125Z,8.70
2022-10-06T02:37:10.788Z,9.10
2022-10-06T02:39:43.252Z,9.00
2022-10-06T02:42:15.504Z,9.30
2022-10-06T02:44:48.244Z,10.80
2022-10-06T02:47:22.425Z,9.90
2022-10-06T02:49:54.756Z,9.70
2022-10-06T02:52:31.982Z,10.90
2022-10-06T02:55:05.075Z,10.90
2022-10-06T02:57:37.401Z,9.00
2022-10-06T03:00:12.640Z,9.10
2022-10-06T03:02:45.034Z,9.40
2022-10-06T03:05:17.798Z,8.40
2022-10-06T03:07:50.136Z,9.60
2022-10-06T03:10:23.258Z,8.60
2022-10-06T03:12:55.780Z,10.30
2022-10-06T03:15:28.887Z,9.40
2022-10-06T03:18:01.766Z,10.20
2022-10-06T03:20:34.075Z,8.40
2022-10-06T03:23:10.262Z,9.30
2022-10-06T03:25:45.516Z,9.60
2022-10-06T03:28:18.697Z,8.70
2022-10-06T03:30:51.087Z,8.70
2022-10-06T03:33:23.921Z,10.80
2022-10-06T03:36:03.796Z,8.90
2022-10-06T03:38:37.720Z,9.70
2022-10-06T03:41:12.089Z,9.90
2022-10-06T03:43:46.468Z,8.80
2022-10-06T03:46:20.925Z,9.00
2022-10-06T03:48:54.117Z,10.20
2022-10-06T03:51:31.404Z,9.90
2022-10-06T03:54:04.745Z,9.20
2022-10-06T03:56:39.947Z,8.70
2022-10-06T03:59:14.150Z,9.30
2022-10-06T04:01:49.401Z,8.40
2022-10-06T04:04:34.086Z,8.90
2022-10-06T04:07:10.362Z,10.40
2022-10-06T04:09:42.718Z,9.60
2022-10-06T04:12:16.250Z,10.20
2022-10-06T04:14:48.852Z,9.00
2022-10-06T04:17:21.132Z,9.80
2022-10-06T04:19:53.328Z,10.10
2022-10-06T04:22:25.663Z,9.50
2022-10-06T04:24:58.041Z,9.90
2022-10-06T04:27:30.492Z,8.50
2022-10-06T04:30:12.726Z,9.90
2022-10-06T04:32:45.930Z,8.70
2022-10-06T04:35:19.398Z,9.60
2022-10-06T04:37:52.038Z,8.40
2022-10-06T04:40:24.516Z,8.70
2022-10-06T04:42:57.571Z,9.50
2022-10-06T04:45:30.078Z,9.50
2022-10-06T04:48:02.530Z,11.40
2022-10-06T04:50:34.975Z,12.90
2022-10-06T04:53:13.813Z,13.40
2022-10-06T04:55:46.244Z,14.90
2022-10-06T04:58:18.585Z,15.40
2022-10-06T05:00:53.055Z,15.30
2022-10-06T05:03:25.721Z,11.60
2022-10-06T05:06:06.018Z,10.00
2022-10-06T05:08:38.636Z,8.90
2022-10-06T05:11:15.194Z,7.80
2022-10-06T05:13:52.976Z,8.20
2022-10-06T05:16:29.069Z,8.80
2022-10-06T05:19:08.013Z,8.30
2022-10-06T05:21:45.115Z,8.70
2022-10-06T05:24:22.778Z,12.20
2022-10-06T05:26:59.519Z,12.70
2022-10-06T05:29:35.385Z,13.90
2022-10-06T05:32:09.322Z,20.60
2022-10-06T05:34:42.488Z,61.20
2022-10-06T05:37:14.803Z,35.60
2022-10-06T05:39:47.823Z,24.80
2022-10-06T05:42:20.427Z,10.80
2022-10-06T05:44:53.017Z,13.70
2022-10-06T05:47:25.350Z,29.20
2022-10-06T05:49:57.616Z,11.60
2022-10-06T05:52:30.010Z,18.40
2022-10-06T05:55:02.987Z,37.20
2022-10-06T05:57:35.645Z,26.40
2022-10-06T06:00:11.197Z,13.10
2022-10-06T06:02:45.362Z,78.40
2022-10-06T06:05:19.272Z,93.60
2022-10-06T06:07:51.701Z,52.50
2022-10-06T06:10:24.157Z,19.90
2022-10-06T06:12:56.613Z,25.40
2022-10-06T06:16:01.999Z,15.10
2022-10-06T06:18:35.688Z,15.00
2022-10-06T06:21:10.712Z,15.00
2022-10-06T06:23:46.569Z,16.40
2022-10-06T06:26:23.620Z,17.90
2022-10-06T06:29:04.143Z,10.20
2022-10-06T06:31:39.863Z,13.20
2022-10-06T06:34:13.161Z,17.10
2022-10-06T06:36:52.205Z,13.70
2022-10-06T06:39:25.572Z,17.80
2022-10-06T06:41:58.369Z,23.40
2022-10-06T06:44:47.976Z,11.20
2022-10-06T06:47:40.244Z,17.60
2022-10-06T06:50:15.261Z,14.00
2022-10-06T06:52:47.566Z,13.90
2022-10-06T06:55:20.572Z,17.80
2022-10-06T06:57:54.925Z,9.60
2022-10-06T07:00:27.261Z,16.80
2022-10-06T07:03:00.959Z,14.90
2022-10-06T07:05:35.813Z,9.90
2022-10-06T07:08:09.952Z,34.10
2022-10-06T07:10:45.235Z,17.70
2022-10-06T07:13:18.668Z,13.10
2022-10-06T07:16:10.545Z,13.30
2022-10-06T07:19:00.326Z,14.10
2022-10-06T07:21:50.934Z,10.50
2022-10-06T07:24:42.163Z,8.40
2022-10-06T07:27:14.942Z,10.70
2022-10-06T07:29:47.338Z,7.50
2022-10-06T07:32:21.399Z,6.90
2022-10-06T07:34:55.431Z,7.90
2022-10-06T07:37:29.307Z,8.70
2022-10-06T07:40:02.779Z,6.30
2022-10-06T07:42:48.571Z,5.70
2022-10-06T07:45:42.555Z,6.20
2022-10-06T07:48:19.717Z,6.20
2022-10-06T07:50:56.725Z,5.80
2022-10-06T07:53:37.574Z,5.70
2022-10-06T07:56:20.685Z,8.40
2022-10-06T07:58:56.174Z,7.50
2022-10-06T08:01:30.155Z,5.60
2022-10-06T08:04:06.998Z,5.90
2022-10-06T08:06:39.662Z,5.50
2022-10-06T08:09:11.952Z,16.00
2022-10-06T08:11:45.224Z,27.00
2022-10-06T08:14:17.509Z,33.40
2022-10-06T08:16:49.869Z,25.40
2022-10-06T08:19:22.326Z,24.20
2022-10-06T08:21:54.573Z,14.20
2022-10-06T08:24:33.821Z,5.40
2022-10-06T08:27:14.813Z,14.60
2022-10-06T08:29:47.078Z,18.00
2022-10-06T08:32:20.161Z,7.80
2022-10-06T08:34:52.800Z,17.00
2022-10-06T08:37:26.946Z,9.10
2022-10-06T08:39:59.633Z,6.10
2022-10-06T08:42:39.848Z,15.20
2022-10-06T08:45:19.305Z,8.90
2022-10-06T08:47:56.531Z,5.20
2022-10-06T08:50:33.748Z,9.10
2022-10-06T08:53:15.480Z,8.70
2022-10-06T08:55:54.134Z,5.40
2022-10-06T08:58:38.527Z,4.90
2022-10-06T09:01:19.903Z,8.00
2022-10-06T09:03:54.345Z,5.60
2022-10-06T09:06:41.804Z,13.30
2022-10-06T09:09:29.389Z,4.60
2022-10-06T09:12:09.917Z,9.00
2022-10-06T09:14:45.610Z,8.80
2022-10-06T09:17:23.595Z,15.80
2022-10-06T09:20:01.615Z,94.90
2022-10-06T09:22:35.048Z,10.20
2022-10-06T09:25:20.252Z,10.90
2022-10-06T09:27:57.143Z,11.80
2022-10-06T09:30:29.850Z,22.50
2022-10-06T09:33:04.598Z,20.80
2022-10-06T09:38:09.436Z,63.30
2022-10-06T09:40:49.639Z,37.00
2022-10-06T09:43:26.884Z,18.50
2022-10-06T09:46:23.049Z,4.60
2022-10-06T09:49:18.880Z,17.80
2022-10-06T09:52:18.522Z,8.60
2022-10-06T09:55:10.185Z,3.90
2022-10-06T09:57:51.458Z,51.50
2022-10-06T10:00:31.921Z,72.60
2022-10-06T10:03:07.304Z,82.00
2022-10-06T10:05:47.046Z,48.20
2022-10-06T10:08:24.416Z,28.90
2022-10-06T10:11:37.392Z,11.60
2022-10-06T10:14:19.752Z,7.20
2022-10-06T10:16:53.494Z,5.70
2022-10-06T10:19:32.970Z,5.20
2022-10-06T10:22:06.134Z,3.70
2022-10-06T10:24:55.235Z,4.50
2022-10-06T10:27:36.949Z,5.50
2022-10-06T10:30:14.850Z,3.80
2022-10-06T10:33:00.472Z,4.80
2022-10-06T10:35:38.874Z,3.00
2022-10-06T10:38:18.741Z,2.70
2022-10-06T10:40:56.580Z,3.60
2022-10-06T10:43:35.252Z,1.80
2022-10-06T10:46:16.996Z,1.60
2022-10-06T10:48:55.524Z,4.00
2022-10-06T10:51:33.461Z,14.40
2022-10-06T10:54:10.764Z,48.40
2022-10-06T11:33:15.189Z,1.30
2022-10-06T11:35:49.722Z,1.00
2022-10-06T11:43:43.508Z,1.10
2022-10-06T11:46:32.071Z,1.30
2022-10-06T11:49:49.529Z,1.20
2022-10-06T11:52:53.689Z,1.10
2022-10-06T11:55:29.150Z,1.20
2022-10-06T11:58:41.401Z,1.50
2022-10-06T12:01:08.942Z,1.00
2022-10-06T12:04:14.075Z,0.80
2022-10-06T12:07:00.990Z,0.90
2022-10-06T12:09:53.973Z,1.00
2022-10-06T12:13:07.111Z,0.90
2022-10-06T12:19:24.059Z,1.10
2022-10-06T12:22:08.702Z,1.70
2022-10-06T12:24:46.169Z,1.20
2022-10-06T12:27:32.083Z,1.00
2022-10-06T12:30:19.047Z,1.00
2022-10-06T12:32:56.328Z,1.00
2022-10-06T12:35:37.188Z,3.90
2022-10-06T12:38:45.614Z,6.40
2022-10-06T12:41:57.703Z,2.10
2022-10-06T12:44:35.452Z,1.20
2022-10-06T12:47:14.825Z,1.00
2022-10-06T12:49:58.666Z,1.20
2022-10-06T12:52:45.131Z,0.90
2022-10-06T12:55:34.760Z,0.90
2022-10-06T12:58:08.059Z,3.40
2022-10-06T13:00:43.024Z,2.30
2022-10-06T13:03:24.399Z,1.40
2022-10-06T13:06:00.709Z,1.20
2022-10-06T13:08:35.003Z,1.10
2022-10-06T13:11:22.267Z,1.30
2022-10-06T13:13:56.356Z,1.00
2022-10-06T13:16:32.114Z,1.30
2022-10-06T13:19:04.561Z,1.60
2022-10-06T13:21:36.931Z,1.10
2022-10-06T13:24:15.026Z,1.10
2022-10-06T13:26:48.625Z,0.80
2022-10-06T13:29:24.120Z,1.00
2022-10-06T13:31:57.954Z,1.90
2022-10-06T13:34:34.971Z,6.20
2022-10-06T13:37:07.506Z,9.30
2022-10-06T13:39:39.794Z,5.30
2022-10-06T13:42:17.902Z,4.30
2022-10-06T13:44:59.576Z,3.30
2022-10-06T13:47:33.178Z,1.50
2022-10-06T13:50:08.514Z,2.80
2022-10-06T13:52:42.499Z,1.60
2022-10-06T13:55:22.565Z,0.80
2022-10-06T13:58:10.109Z,1.40
2022-10-06T14:00:55.981Z,2.10
2022-10-06T14:06:19.028Z,48.00
2022-10-06T14:08:55.208Z,4.80
2022-10-06T14:11:30.437Z,2.50
2022-10-06T14:14:05.877Z,1.10
2022-10-06T14:16:38.213Z,1.10
2022-10-06T14:19:38.910Z,1.90
2022-10-06T14:22:32.508Z,1.70
2022-10-06T14:25:11.776Z,1.20
2022-10-06T14:27:44.026Z,1.40
2022-10-06T14:30:17.064Z,1.30
2022-10-06T14:32:49.825Z,1.00
2022-10-06T14:35:22.292Z,1.30
2022-10-06T14:37:54.474Z,1.30
2022-10-06T14:40:26.849Z,1.70
2022-10-06T14:42:59.092Z,1.30
2022-10-06T14:45:36.195Z,1.10
2022-10-06T14:48:08.672Z,2.10
2022-10-06T14:50:41.496Z,3.70
2022-10-06T14:53:17.622Z,1.70
2022-10-06T14:55:49.891Z,1.10
2022-10-06T14:58:22.129Z,1.50
2022-10-06T15:00:54.412Z,1.10
2022-10-06T15:03:26.863Z,1.30
2022-10-06T15:06:22.604Z,1.40
2022-10-06T15:08:57.475Z,2.00
2022-10-06T15:11:31.204Z,1.70
2022-10-06T15:14:04.236Z,1.50
2022-10-06T15:16:40.731Z,2.40
2022-10-06T15:19:14.004Z,3.90
2022-10-06T15:21:46.601Z,2.80
2022-10-06T15:24:21.376Z,2.80
2022-10-06T15:27:11.259Z,4.20
2022-10-06T15:29:43.574Z,4.50
2022-10-06T15:32:15.958Z,3.80
2022-10-06T15:34:48.181Z,4.30
2022-10-06T15:37:21.130Z,4.30
2022-10-06T15:39:53.392Z,3.50
2022-10-06T15:42:25.704Z,5.10
2022-10-06T15:44:57.957Z,4.80
2022-10-06T15:47:30.223Z,5.90
2022-10-06T15:50:03.650Z,3.60
2022-10-06T15:52:36.212Z,5.90
2022-10-06T15:55:10.649Z,4.60
2022-10-06T15:57:42.946Z,3.90
2022-10-06T16:00:17.641Z,4.50
2022-10-06T16:05:47.408Z,5.50
2022-10-06T16:08:19.712Z,9.00
2022-10-06T16:10:53.548Z,5.20
2022-10-06T16:13:25.949Z,9.50
2022-10-06T16:15:58.533Z,13.00
2022-10-06T16:18:32.640Z,9.20
2022-10-06T16:21:04.992Z,10.10
2022-10-06T16:23:37.243Z,12.00
2022-10-06T16:26:09.565Z,20.50
2022-10-06T16:28:41.896Z,17.80
2022-10-06T16:31:14.182Z,16.20
2022-10-06T16:33:47.036Z,17.40
2022-10-06T16:36:19.916Z,26.30
2022-10-06T16:38:55.872Z,21.10
2022-10-06T16:41:28.255Z,22.70
2022-10-06T16:44:01.166Z,24.20
2022-10-06T16:46:34.205Z,22.40
2022-10-06T16:49:08.723Z,19.70
2022-10-06T16:51:43.003Z,17.00
2022-10-06T16:54:17.544Z,17.10
2022-10-06T16:56:52.785Z,18.70
2022-10-06T16:59:27.070Z,21.10
2022-10-06T17:01:59.281Z,31.40
2022-10-06T17:04:31.574Z,33.00
2022-10-06T17:07:04.376Z,39.90
2022-10-06T17:09:36.736Z,44.20
2022-10-06T17:12:09.027Z,42.20
2022-10-06T17:14:41.293Z,40.60
2022-10-06T17:17:13.585Z,41.70
2022-10-06T17:19:45.828Z,40.50
2022-10-06T17:22:18.072Z,83.70
2022-10-06T17:24:50.306Z,49.20
2022-10-06T17:27:23.841Z,45.60
2022-10-06T17:29:56.101Z,42.20
2022-10-06T17:32:28.421Z,48.40
2022-10-06T17:35:00.723Z,41.90
2022-10-06T17:37:35.130Z,44.80
2022-10-06T17:40:09.204Z,70.90
2022-10-06T17:42:42.107Z,76.10
2022-10-06T17:45:20.377Z,72.10
2022-10-06T17:47:53.819Z,56.60
2022-10-06T17:50:42.290Z,61.70
2022-10-06T17:53:14.800Z,67.60
2022-10-06T17:55:47.916Z,59.40
2022-10-06T17:58:29.741Z,174.60
2022-10-06T18:01:10.299Z,161.80
2022-10-06T18:03:46.756Z,148.20
2022-10-06T18:06:41.912Z,152.90
2022-10-06T18:09:15.235Z,150.40
2022-10-06T18:11:55.558Z,108.50
2022-10-06T18:14:33.642Z,140.30
2022-10-06T18:17:06.744Z,175.00
2022-10-06T18:19:40.435Z,100.20
2022-10-06T18:37:41.569Z,31.80
2022-10-06T18:40:14.986Z,35.20
2022-10-06T18:42:47.274Z,59.50
2022-10-06T18:45:39.563Z,90.40
2022-10-06T18:48:30.292Z,132.00
2022-10-06T18:51:06.431Z,58.20
2022-10-06T18:53:39.191Z,63.70
2022-10-06T18:56:11.218Z,117.40
2022-10-06T18:58:44.488Z,149.40
2022-10-06T19:01:16.951Z,134.50
2022-10-06T19:03:50.690Z,98.80
2022-10-06T19:06:22.991Z,57.50
2022-10-06T19:09:00.940Z,51.40
2022-10-06T19:11:46.097Z,64.70
2022-10-06T19:14:20.159Z,34.80
2022-10-06T19:16:59.032Z,28.70
2022-10-06T19:19:34.296Z,29.30
2022-10-06T19:22:07.470Z,54.30
2022-10-06T19:24:42.217Z,106.10
2022-10-06T19:29:53.164Z,57.50
2022-10-06T19:32:27.219Z,61.70
2022-10-06T19:34:59.500Z,76.10
2022-10-06T19:37:33.519Z,107.70
2022-10-06T19:40:08.327Z,114.40
2022-10-06T19:45:23.566Z,77.30
2022-10-06T19:47:57.502Z,72.10
2022-10-06T19:50:30.375Z,113.80
2022-10-06T19:53:04.775Z,59.30
2022-10-06T19:55:36.906Z,58.00
2022-10-06T19:58:09.071Z,67.00
2022-10-06T20:00:42.305Z,82.10
2022-10-06T20:03:14.335Z,49.80
2022-10-06T20:05:46.481Z,85.50
2022-10-06T20:08:18.597Z,49.50
2022-10-06T20:10:50.760Z,64.00
2022-10-06T20:13:22.911Z,50.20
2022-10-06T20:15:55.013Z,36.30
2022-10-06T20:18:27.208Z,25.20
2022-10-06T20:21:02.421Z,18.70
2022-10-06T20:23:34.468Z,16.50
2022-10-06T20:26:14.968Z,15.30
2022-10-06T20:28:47.568Z,15.90
2022-10-06T20:31:22.665Z,19.20
2022-10-06T20:33:58.146Z,19.00
2022-10-06T20:36:32.121Z,18.30
2022-10-06T20:39:31.135Z,21.70
2022-10-06T20:42:03.618Z,23.90
2022-10-06T20:44:36.054Z,25.10
2022-10-06T20:47:08.969Z,36.00
2022-10-06T20:49:42.618Z,37.20
2022-10-06T20:52:15.234Z,42.10
2022-10-06T20:54:47.280Z,31.20
2022-10-06T20:57:19.380Z,21.10
2022-10-06T20:59:52.649Z,18.00
2022-10-06T21:02:24.798Z,14.10
2022-10-06T21:04:57.590Z,12.70
2022-10-06T21:07:30.215Z,12.80
2022-10-06T21:10:02.390Z,12.70
2022-10-06T21:12:34.642Z,12.60
2022-10-06T21:15:07.648Z,10.80
2022-10-06T21:17:42.508Z,9.60
2022-10-06T21:20:15.053Z,10.70
2022-10-06T21:22:47.343Z,10.10
2022-10-06T21:25:19.719Z,10.40
2022-10-06T21:27:51.908Z,10.10
2022-10-06T21:30:24.543Z,10.70
2022-10-06T21:32:57.797Z,10.20
2022-10-06T21:35:30.067Z,16.70
2022-10-06T21:38:02.217Z,21.80
2022-10-06T21:40:38.532Z,12.70
2022-10-06T21:43:10.912Z,11.30
2022-10-06T21:45:47.434Z,30.10
2022-10-06T21:48:20.056Z,12.70
2022-10-06T21:50:58.509Z,10.90
2022-10-06T21:53:32.967Z,11.70
2022-10-06T21:56:05.330Z,10.50
2022-10-06T21:58:37.635Z,11.40
2022-10-06T22:01:14.032Z,10.10
2022-10-06T22:03:46.535Z,11.30
2022-10-06T22:06:20.111Z,9.80
2022-10-06T22:08:52.835Z,8.90
2022-10-06T22:11:27.373Z,9.80
2022-10-06T22:14:01.524Z,9.70
2022-10-06T22:16:35.579Z,13.00
2022-10-06T22:19:09.816Z,10.70
2022-10-06T22:21:43.844Z,10.40
2022-10-06T22:24:17.968Z,10.40
2022-10-06T22:26:50.888Z,12.50
2022-10-06T22:29:23.713Z,13.00
2022-10-06T22:31:56.181Z,12.70
2022-10-06T22:34:29.849Z,13.80
2022-10-06T22:37:01.999Z,13.00
2022-10-06T22:39:34.560Z,13.50
2022-10-06T22:42:06.992Z,12.90
2022-10-06T22:44:39.074Z,10.90
2022-10-06T22:47:11.188Z,11.60
2022-10-06T22:49:43.325Z,10.00
2022-10-06T22:52:15.421Z,12.60
2022-10-06T22:54:47.586Z,11.90
2022-10-06T22:57:19.748Z,11.40
2022-10-06T22:59:51.957Z,10.00
2022-10-06T23:02:24.091Z,10.30
2022-10-06T23:04:56.276Z,10.40
2022-10-06T23:07:28.433Z,9.20
2022-10-06T23:10:00.568Z,10.90
2022-10-06T23:12:32.663Z,9.90
2022-10-06T23:15:05.363Z,10.30
2022-10-06T23:17:38.025Z,9.60
2022-10-06T23:20:13.073Z,17.40
2022-10-06T23:22:45.228Z,11.60
2022-10-06T23:25:17.523Z,10.60
2022-10-06T23:27:49.670Z,9.00
2022-10-06T23:30:21.860Z,9.00
2022-10-06T23:32:53.937Z,7.50
2022-10-06T23:35:26.131Z,7.90
2022-10-06T23:37:58.243Z,9.40
2022-10-06T23:40:30.539Z,9.20
2022-10-06T23:43:02.794Z,10.30
2022-10-06T23:45:35.030Z,10.00
2022-10-06T23:48:07.147Z,8.90
2022-10-06T23:50:39.291Z,9.40
2022-10-06T23:53:11.841Z,8.90
2022-10-06T23:55:44.001Z,7.90
2022-10-06T23:58:16.623Z,8.70
